Time;durP1;ratioP1;P1;durP2;ratioP2;P2;SDS_P1;SDS_P2;PMS_P1;PMS_P2;Temp;Humidity;BMP_temperature;BMP_pressure;BME280_temperature;BME280_humidity;BME280_pressure;Samples;Min_cycle;Max_cycle;Signal;HPM_P1;HPM_P2
2021/11/19 00:00:41;;;;;;;12.35;5.05;;;;;;;9.70;72.07;101482.84;4964464;28;20039;-80
2021/11/19 00:03:07;;;;;;;15.00;4.35;;;;;;;9.69;72.31;101473.13;4960393;29;20051;-80
2021/11/19 00:05:33;;;;;;;14.30;4.32;;;;;;;9.68;72.33;101474.00;4960168;28;20090;-78
2021/11/19 00:07:59;;;;;;;14.77;4.95;;;;;;;9.68;72.52;101479.28;4963478;28;20043;-80
2021/11/19 00:10:25;;;;;;;15.35;4.97;;;;;;;9.72;72.72;101478.44;4960512;28;20043;-79
2021/11/19 00:12:50;;;;;;;14.45;5.15;;;;;;;9.71;72.32;101479.31;4957016;28;20049;-79
2021/11/19 00:15:17;;;;;;;13.88;5.05;;;;;;;9.66;72.64;101477.50;4961174;29;20122;-80
2021/11/19 00:17:42;;;;;;;17.27;4.80;;;;;;;9.65;72.95;101480.13;4962080;28;20093;-80
2021/11/19 00:20:12;;;;;;;10.90;4.15;;;;;;;9.63;73.00;101481.84;4961061;29;20051;-80
2021/11/19 00:22:38;;;;;;;15.52;4.38;;;;;;;9.66;73.20;101488.03;4960924;28;20608;-79
2021/11/19 00:25:05;;;;;;;15.98;4.90;;;;;;;9.64;73.40;101476.63;4961822;28;20035;-79
2021/11/19 00:27:31;;;;;;;14.00;4.75;;;;;;;9.72;72.79;101481.06;4961942;28;20039;-80
2021/11/19 00:29:57;;;;;;;17.40;4.88;;;;;;;9.68;73.51;101468.75;4960547;28;20562;-79
2021/11/19 00:32:22;;;;;;;15.68;4.78;;;;;;;9.62;73.25;101467.78;4963861;28;20035;-80
2021/11/19 00:34:48;;;;;;;16.10;5.18;;;;;;;9.67;73.57;101467.88;4966164;28;20034;-79
2021/11/19 00:37:14;;;;;;;15.27;4.82;;;;;;;9.61;73.56;101487.09;4964752;28;20039;-79
2021/11/19 00:39:41;;;;;;;14.57;4.78;;;;;;;9.68;73.31;101480.16;4960773;29;20061;-79
2021/11/19 00:42:07;;;;;;;11.73;4.25;;;;;;;9.70;73.43;101473.16;4959729;28;20059;-79
2021/11/19 00:44:34;;;;;;;14.13;4.72;;;;;;;9.72;73.53;101471.44;4969144;28;20038;-80
2021/11/19 00:47:01;;;;;;;14.25;4.47;;;;;;;9.69;73.38;101468.75;4960324;28;20027;-79
2021/11/19 00:49:32;;;;;;;10.88;5.07;;;;;;;9.68;73.43;101479.28;4959170;28;20070;-79
2021/11/19 00:51:59;;;;;;;11.60;4.80;;;;;;;9.70;73.60;101482.84;4960048;29;20126;-79
2021/11/19 00:54:28;;;;;;;15.55;4.25;;;;;;;9.70;73.43;101496.91;4959173;28;20043;-79
2021/11/19 00:57:07;;;;;;;14.25;5.13;;;;;;;9.70;74.12;101493.38;4959478;28;20042;-80
2021/11/19 00:59:35;;;;;;;11.30;4.57;;;;;;;9.73;73.95;101488.13;4959267;28;20054;-80
2021/11/19 01:02:07;;;;;;;21.40;5.03;;;;;;;9.75;74.08;101491.69;4958453;28;20035;-79
2021/11/19 01:04:34;;;;;;;15.95;5.00;;;;;;;9.70;74.04;101496.91;4954947;28;20027;-79
2021/11/19 01:07:00;;;;;;;13.23;5.10;;;;;;;9.75;74.47;101489.06;4955003;28;20454;-79
2021/11/19 01:09:32;;;;;;;21.88;6.25;;;;;;;9.78;74.22;101492.59;4954698;28;20042;-79
2021/11/19 01:12:00;;;;;;;18.38;5.10;;;;;;;9.75;74.74;101486.41;4954542;29;20494;-78
2021/11/19 01:14:39;;;;;;;16.48;5.07;;;;;;;9.76;74.83;101490.81;4954536;28;20050;-79
2021/11/19 01:17:09;;;;;;;11.05;4.40;;;;;;;9.73;75.38;101480.22;4939968;28;20544;-79
2021/11/19 01:19:44;;;;;;;14.40;5.45;;;;;;;9.80;75.28;101466.25;4963121;28;20483;-80
2021/11/19 01:22:14;;;;;;;15.18;5.40;;;;;;;9.77;74.81;101479.38;4954218;28;20494;-80
2021/11/19 01:24:40;;;;;;;16.52;5.47;;;;;;;9.73;75.34;101467.06;4953998;29;20410;-79
2021/11/19 01:27:07;;;;;;;12.98;4.38;;;;;;;9.76;74.97;101475.88;4954347;28;20050;-79
2021/11/19 01:29:33;;;;;;;19.80;4.63;;;;;;;9.79;75.29;101468.00;4954466;28;20486;-79
2021/11/19 01:32:06;;;;;;;11.30;4.40;;;;;;;9.82;75.40;101473.31;4954456;28;20449;-79
2021/11/19 01:34:54;;;;;;;12.60;4.28;;;;;;;9.83;75.27;101479.47;4952710;29;20047;-79
2021/11/19 01:37:38;;;;;;;15.20;4.60;;;;;;;9.83;75.29;101488.25;4957413;29;20453;-79
2021/11/19 01:40:21;;;;;;;13.38;5.03;;;;;;;9.77;75.38;101495.19;4953198;28;20498;-79
2021/11/19 01:43:05;;;;;;;10.65;4.50;;;;;;;9.74;76.08;101489.91;4962383;28;20482;-80
2021/11/19 01:45:38;;;;;;;12.63;5.15;;;;;;;9.79;75.80;101488.19;4981221;28;20610;-80
2021/11/19 01:48:07;;;;;;;15.10;5.40;;;;;;;9.78;76.12;101494.34;4962163;29;20035;-80
2021/11/19 01:50:41;;;;;;;15.65;4.78;;;;;;;9.76;76.17;101498.72;4943814;29;20035;-80
2021/11/19 01:53:12;;;;;;;13.25;5.10;;;;;;;9.73;76.25;101503.97;4971908;28;20035;-80
2021/11/19 01:55:56;;;;;;;14.13;4.88;;;;;;;9.73;76.20;101482.88;4970836;28;20042;-79
2021/11/19 01:58:35;;;;;;;13.07;4.88;;;;;;;9.70;76.59;101482.84;4963154;28;20140;-80
2021/11/19 02:01:08;;;;;;;14.52;5.55;;;;;;;9.80;76.50;101480.31;4953751;29;20486;-80
2021/11/19 02:03:38;;;;;;;10.95;4.82;;;;;;;9.82;76.63;101477.69;4959894;28;20122;-80
2021/11/19 02:06:16;;;;;;;13.48;4.20;;;;;;;9.86;76.83;101479.50;4955935;28;20494;-79
2021/11/19 02:08:45;;;;;;;11.20;4.32;;;;;;;9.81;76.73;101473.28;4956261;28;20410;-79
2021/11/19 02:11:41;;;;;;;12.60;4.75;;;;;;;9.83;76.64;101466.31;4962760;28;20027;-79
2021/11/19 02:14:13;;;;;;;11.77;4.93;;;;;;;9.86;76.79;101479.50;4953568;28;20055;-79
2021/11/19 02:16:45;;;;;;;14.73;5.43;;;;;;;9.83;76.89;101485.63;4957369;28;20074;-79
2021/11/19 02:19:19;;;;;;;13.63;5.57;;;;;;;9.87;76.23;101484.78;4943572;29;20039;-79
2021/11/19 02:21:47;;;;;;;12.23;4.60;;;;;;;9.89;76.88;101482.19;4955018;29;20062;-79
2021/11/19 02:24:22;;;;;;;14.38;5.07;;;;;;;9.91;76.14;101491.00;4955890;29;20399;-80
2021/11/19 02:26:54;;;;;;;11.45;5.13;;;;;;;9.91;76.94;101483.09;4958861;28;20039;-80
2021/11/19 02:29:21;;;;;;;11.93;5.13;;;;;;;9.91;76.67;101505.94;4961178;28;20033;-80
2021/11/19 02:31:57;;;;;;;18.30;5.90;;;;;;;9.82;77.35;101475.06;4962909;28;20761;-80
2021/11/19 02:34:27;;;;;;;13.88;5.80;;;;;;;9.86;77.34;101479.50;4962500;28;20046;-80
2021/11/19 02:36:59;;;;;;;13.02;5.05;;;;;;;9.87;76.72;101476.00;4961927;28;20030;-80
2021/11/19 02:39:29;;;;;;;13.30;5.15;;;;;;;9.82;77.28;101467.16;4951636;29;20046;-79
2021/11/19 02:42:02;;;;;;;11.98;5.28;;;;;;;9.84;77.38;101473.31;4954754;28;20117;-79
2021/11/19 02:44:34;;;;;;;14.45;5.60;;;;;;;9.86;77.52;101471.59;4962089;29;20046;-79
2021/11/19 02:47:08;;;;;;;13.48;5.55;;;;;;;9.84;77.49;101465.41;4963174;28;20035;-80
2021/11/19 02:49:34;;;;;;;9.65;5.53;;;;;;;9.84;77.96;101461.03;4963660;28;20079;-80
2021/11/19 02:52:00;;;;;;;14.32;5.50;;;;;;;9.85;77.84;101459.25;4962785;29;20031;-80
2021/11/19 02:54:32;;;;;;;15.77;6.30;;;;;;;9.84;78.04;101470.69;4956213;28;20143;-80
2021/11/19 02:57:00;;;;;;;15.15;5.90;;;;;;;9.78;78.02;101468.00;4971503;28;20035;-79
2021/11/19 02:59:26;;;;;;;10.65;5.50;;;;;;;9.81;78.24;101465.38;4962667;28;20624;-79
2021/11/19 03:02:00;;;;;;;11.57;5.72;;;;;;;9.83;78.35;101461.03;4963266;28;20035;-80
2021/11/19 03:04:32;;;;;;;17.30;6.03;;;;;;;9.86;78.19;101468.97;4963428;28;20090;-80
2021/11/19 03:06:59;;;;;;;15.50;6.45;;;;;;;9.83;78.54;101468.94;4962697;28;20043;-80
2021/11/19 03:09:37;;;;;;;16.77;6.57;;;;;;;9.79;79.07;101467.13;4962659;28;20521;-80
2021/11/19 03:12:05;;;;;;;14.65;6.38;;;;;;;9.77;79.50;101463.56;4943846;29;20031;-80
2021/11/19 03:14:31;;;;;;;13.73;6.65;;;;;;;9.80;79.08;101463.63;4946357;29;20121;-80
2021/11/19 03:16:57;;;;;;;13.48;7.07;;;;;;;9.82;79.41;101475.97;4963002;28;20095;-79
2021/11/19 03:19:24;;;;;;;13.75;6.97;;;;;;;9.73;79.53;101465.28;4947739;29;20035;-80
2021/11/19 03:21:50;;;;;;;14.82;7.22;;;;;;;9.69;79.84;101459.97;4962985;28;20027;-80
2021/11/19 03:24:18;;;;;;;15.85;6.95;;;;;;;9.86;79.84;101463.69;4948312;29;20031;-79
2021/11/19 03:26:46;;;;;;;16.23;6.82;;;;;;;9.83;79.41;101455.75;4975915;28;20039;-79
2021/11/19 03:29:13;;;;;;;17.27;7.93;;;;;;;9.77;80.06;101459.19;4962295;29;20133;-80
2021/11/19 03:31:42;;;;;;;14.50;7.00;;;;;;;9.81;79.98;101452.19;4962531;28;20058;-80
2021/11/19 03:34:12;;;;;;;16.90;6.90;;;;;;;9.82;79.75;101446.97;4960488;29;20035;-80
2021/11/19 03:36:41;;;;;;;12.65;6.55;;;;;;;9.79;80.50;101430.19;4976020;28;20035;-80
2021/11/19 03:39:08;;;;;;;18.23;7.30;;;;;;;9.83;80.04;101442.56;4957039;28;20031;-80
2021/11/19 03:41:37;;;;;;;14.50;6.45;;;;;;;9.93;79.92;101436.53;4956038;28;20032;-80
2021/11/19 03:44:19;;;;;;;13.30;5.78;;;;;;;9.86;79.56;101448.75;4941500;29;20027;-80
2021/11/19 03:46:54;;;;;;;14.27;6.72;;;;;;;9.87;79.64;101445.22;4964431;28;20062;-79
2021/11/19 03:49:20;;;;;;;11.68;6.10;;;;;;;9.94;79.32;101443.56;4962503;29;20039;-79
2021/11/19 03:51:51;;;;;;;17.75;5.80;;;;;;;9.95;79.61;101463.78;4942105;29;20505;-80
2021/11/19 03:54:20;;;;;;;14.85;6.20;;;;;;;9.97;79.59;101429.53;4962439;28;20041;-80
2021/11/19 03:56:45;;;;;;;18.05;7.15;;;;;;;9.94;79.54;101433.00;4960614;28;20541;-79
2021/11/19 03:59:13;;;;;;;11.80;5.68;;;;;;;9.98;79.62;101431.28;4946232;29;20400;-81
2021/11/19 04:01:42;;;;;;;13.13;5.82;;;;;;;9.99;79.45;101441.88;4963975;28;20114;-81
2021/11/19 04:04:10;;;;;;;11.63;5.45;;;;;;;10.10;79.26;101434.06;4962962;28;20039;-81
2021/11/19 04:06:36;;;;;;;12.73;6.07;;;;;;;10.09;79.09;101429.66;4947274;29;20102;-81
2021/11/19 04:09:03;;;;;;;10.23;5.47;;;;;;;10.08;78.73;101431.41;4961074;28;20039;-81
2021/11/19 04:11:30;;;;;;;12.32;5.63;;;;;;;10.11;78.62;101430.53;4963214;28;20450;-81
2021/11/19 04:13:55;;;;;;;10.57;4.65;;;;;;;10.13;78.98;101422.66;4962211;28;20042;-80
2021/11/19 04:16:26;;;;;;;11.90;5.78;;;;;;;10.18;78.50;101428.88;4960848;29;20039;-80
2021/11/19 04:18:52;;;;;;;10.73;5.03;;;;;;;10.15;78.75;101426.19;4959660;28;20039;-81
2021/11/19 04:21:19;;;;;;;10.43;5.40;;;;;;;10.20;78.87;101427.13;4957841;28;20031;-78
2021/11/19 04:23:48;;;;;;;17.42;5.50;;;;;;;10.17;78.86;101427.09;4956666;28;20066;-79
2021/11/19 04:26:14;;;;;;;12.15;5.32;;;;;;;10.26;78.12;101427.19;4956847;28;20121;-78
2021/11/19 04:28:40;;;;;;;11.90;5.25;;;;;;;10.28;78.68;101430.75;4956604;28;20031;-78
2021/11/19 04:31:24;;;;;;;9.27;5.13;;;;;;;10.29;78.81;101448.34;4942803;29;20028;-78
2021/11/19 04:33:50;;;;;;;11.05;5.10;;;;;;;10.33;78.56;101449.28;4958684;28;20040;-78
2021/11/19 04:36:18;;;;;;;10.40;6.03;;;;;;;10.28;78.58;101451.88;4953023;28;20095;-77
2021/11/19 04:38:44;;;;;;;10.07;5.45;;;;;;;10.33;78.55;101449.28;4958173;28;20039;-77
2021/11/19 04:41:11;;;;;;;9.88;5.22;;;;;;;10.35;78.52;101455.44;4954763;28;20035;-77
2021/11/19 04:43:37;;;;;;;11.50;5.47;;;;;;;10.38;78.44;101461.63;4959478;28;20403;-77
2021/11/19 04:46:05;;;;;;;11.10;5.03;;;;;;;10.39;78.68;101460.75;4958216;28;20117;-77
2021/11/19 04:48:34;;;;;;;8.88;5.18;;;;;;;10.43;78.39;101461.69;4953284;28;20097;-77
2021/11/19 04:51:07;;;;;;;10.07;5.13;;;;;;;10.42;79.00;101454.63;4939515;28;20367;-77
2021/11/19 04:53:35;;;;;;;9.20;5.15;;;;;;;10.39;79.50;101466.03;4943200;28;20027;-77
2021/11/19 04:56:02;;;;;;;10.68;6.00;;;;;;;10.47;79.10;101480.19;4949977;28;20539;-76
2021/11/19 04:58:29;;;;;;;13.60;6.18;;;;;;;10.46;79.60;101473.16;4977416;28;20174;-77
2021/11/19 05:00:59;;;;;;;11.95;6.35;;;;;;;10.38;80.43;101482.75;4972655;28;20038;-77
2021/11/19 05:03:49;;;;;;;12.20;6.10;;;;;;;10.38;80.45;101481.88;4945981;28;20200;-77
2021/11/19 05:06:15;;;;;;;13.25;6.53;;;;;;;10.37;80.95;101480.97;4968688;28;20074;-77
2021/11/19 05:08:41;;;;;;;13.13;6.47;;;;;;;10.42;80.56;101481.91;4958906;28;20034;-77
2021/11/19 05:11:15;;;;;;;12.82;6.40;;;;;;;10.45;80.60;101494.22;4964271;28;20186;-77
2021/11/19 05:13:41;;;;;;;11.73;6.20;;;;;;;10.33;81.28;101497.66;4953415;28;20035;-77
2021/11/19 05:16:10;;;;;;;12.00;7.68;;;;;;;10.27;81.80;101490.56;4953665;28;20046;-77
2021/11/19 05:18:37;;;;;;;10.82;6.57;;;;;;;10.37;81.64;101490.63;4954791;28;20035;-77
2021/11/19 05:21:05;;;;;;;12.32;7.13;;;;;;;10.30;81.83;101482.66;4934382;29;20428;-77
2021/11/19 05:23:31;;;;;;;13.75;6.53;;;;;;;10.34;81.30;101474.78;4967066;28;20046;-77
2021/11/19 05:25:58;;;;;;;14.10;7.53;;;;;;;10.35;81.42;101473.91;4950442;28;20503;-77
2021/11/19 05:28:26;;;;;;;9.00;5.40;;;;;;;10.47;81.27;101482.81;4956013;28;20039;-77
2021/11/19 05:30:56;;;;;;;12.75;5.88;;;;;;;10.39;80.79;101486.25;4949503;28;20027;-77
2021/11/19 05:33:25;;;;;;;12.60;6.55;;;;;;;10.47;80.59;101490.75;4951733;28;20042;-77
2021/11/19 05:35:51;;;;;;;12.43;6.20;;;;;;;10.46;80.64;101478.44;4957043;28;20386;-77
2021/11/19 05:38:18;;;;;;;11.90;6.10;;;;;;;10.53;80.60;101487.28;4960010;28;20059;-77
2021/11/19 05:40:44;;;;;;;11.57;6.13;;;;;;;10.56;81.00;101489.06;4952850;28;20031;-77
2021/11/19 05:43:11;;;;;;;10.10;5.55;;;;;;;10.53;80.51;101482.91;4936818;29;20059;-77
2021/11/19 05:45:57;;;;;;;9.57;5.80;;;;;;;10.57;80.53;101481.16;4955821;28;20043;-77
2021/11/19 05:48:28;;;;;;;11.05;6.60;;;;;;;10.53;80.81;101503.09;4953146;29;20035;-76
2021/11/19 05:50:54;;;;;;;11.40;6.50;;;;;;;10.57;81.02;101496.13;4952662;29;20035;-77
2021/11/19 05:53:20;;;;;;;10.07;6.07;;;;;;;10.61;81.07;101504.09;4952544;28;20039;-76
2021/11/19 05:55:47;;;;;;;14.05;7.18;;;;;;;10.63;81.21;101501.44;4952507;29;20078;-77
2021/11/19 05:58:15;;;;;;;15.98;7.20;;;;;;;10.63;81.11;101506.72;4968650;28;20035;-77
2021/11/19 06:00:45;;;;;;;12.85;6.97;;;;;;;10.61;80.97;101500.53;4949125;28;20058;-77
2021/11/19 06:03:19;;;;;;;11.90;6.32;;;;;;;10.59;81.58;101497.91;4951460;28;20110;-76
2021/11/19 06:05:58;;;;;;;9.90;5.90;;;;;;;10.62;81.34;101504.97;4949705;28;20118;-77
2021/11/19 06:08:26;;;;;;;13.52;6.60;;;;;;;10.63;80.88;101506.72;4951096;28;20042;-77
2021/11/19 06:10:56;;;;;;;10.50;5.97;;;;;;;10.63;80.71;101504.97;4950983;28;20035;-77
2021/11/19 06:13:29;;;;;;;11.65;5.82;;;;;;;10.65;80.46;101511.16;4951213;28;20699;-77
2021/11/19 06:16:00;;;;;;;12.60;6.55;;;;;;;10.60;80.48;101512.88;4950996;28;20487;-77
2021/11/19 06:18:30;;;;;;;10.95;6.32;;;;;;;10.67;80.22;101508.53;4954777;28;20043;-77
2021/11/19 06:21:00;;;;;;;10.65;5.95;;;;;;;10.71;80.10;101507.69;4940302;28;20036;-77
2021/11/19 06:23:35;;;;;;;8.97;5.53;;;;;;;10.72;79.96;101512.09;4954362;28;20027;-77
2021/11/19 06:26:02;;;;;;;8.30;5.45;;;;;;;10.71;80.00;101515.59;4957101;28;20062;-77
2021/11/19 06:28:41;;;;;;;11.15;6.03;;;;;;;10.74;79.71;101505.06;4952649;28;20138;-77
2021/11/19 06:31:11;;;;;;;11.77;5.88;;;;;;;10.75;79.16;101513.00;4952334;28;20517;-77
2021/11/19 06:33:37;;;;;;;9.27;5.57;;;;;;;10.75;79.99;101520.06;4954411;28;20387;-77
2021/11/19 06:36:04;;;;;;;9.15;5.45;;;;;;;10.77;79.31;101523.59;4953213;28;20031;-77
2021/11/19 06:38:29;;;;;;;10.00;5.10;;;;;;;10.75;79.48;101518.28;4952335;29;20030;-77
2021/11/19 06:41:01;;;;;;;8.48;4.85;;;;;;;10.82;79.33;101519.25;4952209;29;20062;-77
2021/11/19 06:43:44;;;;;;;11.98;5.75;;;;;;;10.76;79.16;101524.44;4941064;29;20036;-77
2021/11/19 06:46:29;;;;;;;10.23;5.30;;;;;;;10.76;79.49;101513.88;4953264;29;20050;-77
2021/11/19 06:49:12;;;;;;;8.13;5.15;;;;;;;10.74;79.55;101523.53;4949834;29;20498;-77
2021/11/19 06:52:04;;;;;;;15.32;5.70;;;;;;;10.74;79.70;101527.09;4948633;29;20106;-77
2021/11/19 06:55:02;;;;;;;11.68;5.75;;;;;;;10.78;79.66;101522.72;4941586;28;20082;-77
2021/11/19 06:57:46;;;;;;;8.02;5.40;;;;;;;10.76;79.43;101537.66;4952553;29;20131;-77
2021/11/19 07:00:17;;;;;;;10.38;5.90;;;;;;;10.74;79.75;101526.19;4952783;29;20453;-77
2021/11/19 07:02:43;;;;;;;12.52;6.45;;;;;;;10.81;79.47;101530.66;4954247;28;20055;-78
2021/11/19 07:05:09;;;;;;;9.18;5.47;;;;;;;10.85;79.30;101529.81;4956440;28;20490;-77
2021/11/19 07:07:34;;;;;;;13.43;7.10;;;;;;;10.89;79.63;101530.72;4952224;28;20033;-77
2021/11/19 07:10:00;;;;;;;12.77;5.53;;;;;;;10.92;79.44;101533.38;4960239;28;20047;-77
2021/11/19 07:12:26;;;;;;;8.68;5.63;;;;;;;10.91;79.00;101529.88;4952657;28;20758;-77
2021/11/19 07:14:57;;;;;;;7.60;5.18;;;;;;;10.92;79.47;101538.66;4955235;28;20031;-77
2021/11/19 07:17:24;;;;;;;11.57;6.47;;;;;;;10.90;79.71;101533.38;4956523;28;20035;-77
2021/11/19 07:19:49;;;;;;;9.85;5.55;;;;;;;11.01;79.43;101540.53;4964743;28;20037;-77
2021/11/19 07:22:15;;;;;;;13.15;6.20;;;;;;;11.01;79.02;101551.09;4955936;28;20122;-77
2021/11/19 07:24:45;;;;;;;10.32;5.65;;;;;;;11.01;79.43;101551.09;4955620;28;20034;-79
2021/11/19 07:27:14;;;;;;;11.02;5.47;;;;;;;10.94;79.34;101537.81;4961091;28;20031;-80
2021/11/19 07:29:42;;;;;;;8.80;5.40;;;;;;;10.99;79.64;101542.25;4960579;28;20065;-80
2021/11/19 07:32:26;;;;;;;8.65;5.15;;;;;;;10.96;79.30;101549.28;4965876;28;20053;-79
2021/11/19 07:35:12;;;;;;;10.25;5.63;;;;;;;11.01;79.27;101551.09;4932295;29;20040;-79
2021/11/19 07:37:57;;;;;;;9.73;6.35;;;;;;;10.95;79.55;101559.81;4956209;28;20449;-80
2021/11/19 07:40:40;;;;;;;10.35;5.43;;;;;;;10.99;79.90;101555.47;4958522;28;20400;-80
2021/11/19 07:43:30;;;;;;;7.97;5.35;;;;;;;10.96;79.88;101551.91;4946360;29;20116;-83
2021/11/19 07:46:14;;;;;;;10.80;5.63;;;;;;;10.95;80.57;101558.09;4944361;28;20043;-83
2021/11/19 07:48:46;;;;;;;11.32;5.35;;;;;;;10.88;81.00;101558.91;4939245;29;20486;-81
2021/11/19 07:51:16;;;;;;;10.07;5.70;;;;;;;10.87;81.03;101558.88;4957187;28;20773;-81
2021/11/19 07:53:43;;;;;;;9.93;5.25;;;;;;;10.82;81.17;101558.84;4938907;29;20415;-81
2021/11/19 07:56:10;;;;;;;11.05;5.85;;;;;;;10.84;81.46;101548.28;4959187;28;20400;-81
2021/11/19 07:58:36;;;;;;;10.15;6.00;;;;;;;10.85;81.64;101555.34;4954518;29;20039;-81
2021/11/19 08:01:03;;;;;;;9.77;5.65;;;;;;;10.84;81.52;101554.44;4961921;28;20081;-81
2021/11/19 08:03:30;;;;;;;8.88;5.13;;;;;;;10.87;80.67;101553.59;4964211;28;20077;-81
2021/11/19 08:05:58;;;;;;;10.38;5.38;;;;;;;10.89;80.44;101555.38;4967963;28;20251;-81
2021/11/19 08:08:29;;;;;;;8.15;4.55;;;;;;;11.04;80.11;101540.53;4958347;29;20138;-81
2021/11/19 08:11:01;;;;;;;8.55;4.85;;;;;;;10.95;80.49;101552.81;4950450;29;20039;-80
2021/11/19 08:13:28;;;;;;;9.07;5.20;;;;;;;11.02;80.48;101543.16;4940810;29;20031;-81
2021/11/19 08:15:54;;;;;;;8.32;4.30;;;;;;;10.92;80.69;101550.09;4957587;28;20039;-80
2021/11/19 08:18:26;;;;;;;8.80;4.32;;;;;;;10.94;80.91;101561.56;4957248;29;20039;-81
2021/11/19 08:20:54;;;;;;;8.85;5.35;;;;;;;10.92;81.04;101552.75;4970548;28;20032;-80
2021/11/19 08:23:25;;;;;;;7.80;4.53;;;;;;;10.95;81.09;101560.72;4956970;29;20043;-81
2021/11/19 08:25:51;;;;;;;7.28;4.65;;;;;;;11.01;80.76;101561.66;4958328;28;20039;-81
2021/11/19 08:28:17;;;;;;;9.30;4.70;;;;;;;11.00;80.51;101559.88;4958292;28;20035;-81
2021/11/19 08:30:48;;;;;;;10.02;4.93;;;;;;;11.03;80.70;101560.78;4956628;29;20406;-79
2021/11/19 08:33:16;;;;;;;9.27;5.03;;;;;;;11.09;80.55;101566.13;4956951;29;20035;-81
2021/11/19 08:35:43;;;;;;;10.20;4.70;;;;;;;11.13;79.95;101559.09;4956931;29;20405;-81
2021/11/19 08:38:11;;;;;;;7.07;4.20;;;;;;;11.18;79.91;101560.00;4959108;28;20049;-81
2021/11/19 08:40:43;;;;;;;7.68;4.60;;;;;;;11.10;79.79;101567.00;4956736;28;20125;-80
2021/11/19 08:43:10;;;;;;;10.90;4.88;;;;;;;11.08;79.72;101568.72;4957125;29;20453;-81
2021/11/19 08:45:36;;;;;;;9.40;5.45;;;;;;;11.15;79.99;101565.28;4960441;28;20042;-80
2021/11/19 08:48:01;;;;;;;7.50;4.15;;;;;;;11.15;79.40;101563.50;4964465;28;20110;-79
2021/11/19 08:50:31;;;;;;;8.95;4.60;;;;;;;11.12;80.02;101570.53;4973225;28;20125;-81
2021/11/19 08:52:59;;;;;;;7.47;4.20;;;;;;;11.18;80.00;101570.59;4958086;28;20506;-81
2021/11/19 08:55:25;;;;;;;7.10;4.78;;;;;;;11.12;79.92;101571.44;4956644;28;20035;-81
2021/11/19 08:57:50;;;;;;;7.60;5.00;;;;;;;11.19;79.71;101578.53;4956419;28;20031;-81
2021/11/19 09:00:26;;;;;;;11.90;5.25;;;;;;;11.10;80.30;101572.28;4948328;28;20203;-79
2021/11/19 09:02:51;;;;;;;9.57;5.20;;;;;;;11.06;80.52;101587.22;4956932;28;20178;-81
2021/11/19 09:05:16;;;;;;;7.97;4.43;;;;;;;11.13;80.65;101580.22;4956718;29;20094;-81
2021/11/19 09:07:42;;;;;;;6.53;4.18;;;;;;;11.13;80.10;101582.88;4955932;28;20039;-81
2021/11/19 09:10:12;;;;;;;7.95;5.22;;;;;;;11.13;80.32;101572.31;4957758;28;20502;-80
2021/11/19 09:12:38;;;;;;;6.78;4.50;;;;;;;11.20;80.48;101579.41;4955916;29;20050;-81
2021/11/19 09:15:06;;;;;;;8.23;4.68;;;;;;;11.19;80.30;101573.25;4955918;28;20035;-80
2021/11/19 09:17:33;;;;;;;9.63;4.93;;;;;;;11.25;80.28;101571.53;4949631;28;20046;-81
2021/11/19 09:20:09;;;;;;;6.07;4.80;;;;;;;11.30;79.89;101570.69;4957279;28;20039;-81
2021/11/19 09:23:01;;;;;;;7.38;4.80;;;;;;;11.21;80.32;101586.47;4948333;29;20086;-81
2021/11/19 09:25:28;;;;;;;9.45;5.22;;;;;;;11.33;80.15;101565.41;4966204;28;20055;-81
2021/11/19 09:27:53;;;;;;;7.88;4.80;;;;;;;11.40;79.81;101564.59;4957311;28;20031;-81
2021/11/19 09:30:26;;;;;;;8.90;5.00;;;;;;;11.48;79.32;101562.00;4940011;29;20482;-81
2021/11/19 09:32:54;;;;;;;6.85;4.53;;;;;;;11.46;79.09;101560.22;4944584;29;20038;-81
2021/11/19 09:35:23;;;;;;;6.32;4.68;;;;;;;11.53;79.24;101567.34;4957629;28;20405;-81
2021/11/19 09:37:50;;;;;;;6.50;4.45;;;;;;;11.49;79.43;101563.75;4956547;28;20071;-80
2021/11/19 09:40:16;;;;;;;7.00;5.03;;;;;;;11.44;79.60;101564.63;4957404;28;20043;-82
2021/11/19 09:42:56;;;;;;;7.45;5.05;;;;;;;11.54;79.83;101569.09;4956188;29;20023;-81
2021/11/19 09:45:54;;;;;;;7.97;5.20;;;;;;;11.60;79.17;101575.28;4957467;28;20045;-81
2021/11/19 09:48:41;;;;;;;6.68;4.15;;;;;;;11.54;79.47;101561.16;4953888;28;20380;-81
2021/11/19 09:51:44;;;;;;;7.13;4.30;;;;;;;11.61;78.98;101566.50;4953300;29;20046;-80
2021/11/19 09:54:37;;;;;;;6.57;4.68;;;;;;;11.45;80.06;101591.06;4956917;28;20060;-81
2021/11/19 09:57:24;;;;;;;7.28;5.18;;;;;;;11.53;79.59;101572.63;4957315;28;20102;-81
2021/11/19 10:00:01;;;;;;;7.20;4.53;;;;;;;11.55;79.78;101578.78;4955722;28;20126;-80
2021/11/19 10:02:42;;;;;;;9.23;5.50;;;;;;;11.51;79.92;101574.38;4955147;29;20498;-83
2021/11/19 10:05:26;;;;;;;7.68;4.32;;;;;;;11.55;79.68;101565.56;4956816;28;20035;-81
2021/11/19 10:08:14;;;;;;;6.90;4.68;;;;;;;11.59;79.47;101572.66;4957016;28;20035;-81
2021/11/19 10:11:00;;;;;;;7.45;4.18;;;;;;;11.63;79.54;101580.63;4956726;28;20072;-81
2021/11/19 10:13:50;;;;;;;5.90;3.47;;;;;;;11.62;79.42;101577.94;4956289;28;20098;-81
2021/11/19 10:16:37;;;;;;;6.18;4.05;;;;;;;11.67;79.46;101570.94;4956749;28;20463;-81
2021/11/19 10:19:07;;;;;;;6.28;3.83;;;;;;;11.61;79.35;101565.63;4955450;29;20042;-81
2021/11/19 10:22:02;;;;;;;5.55;3.63;;;;;;;11.62;79.51;101568.25;4955704;29;20039;-81
2021/11/19 10:24:46;;;;;;;7.55;3.97;;;;;;;11.70;79.35;101562.13;4960838;28;20058;-81
2021/11/19 10:27:25;;;;;;;8.70;4.82;;;;;;;11.72;79.63;101557.75;4956005;28;20043;-81
2021/11/19 10:30:18;;;;;;;7.05;4.32;;;;;;;11.78;78.18;101558.66;4955524;29;20099;-80
2021/11/19 10:32:45;;;;;;;6.53;3.15;;;;;;;11.76;78.65;101555.13;4956135;28;20095;-80
2021/11/19 10:35:13;;;;;;;4.38;3.10;;;;;;;11.85;78.59;101549.88;4956335;28;20061;-80
2021/11/19 10:38:06;;;;;;;5.78;3.58;;;;;;;11.88;78.66;101549.03;4956156;28;20066;-81
2021/11/19 10:41:00;;;;;;;5.13;3.45;;;;;;;11.94;78.08;101548.19;4952588;28;20462;-81
2021/11/19 10:43:35;;;;;;;6.55;3.72;;;;;;;11.84;78.94;101539.28;4961919;28;20062;-80
2021/11/19 10:46:22;;;;;;;6.22;3.97;;;;;;;11.92;78.80;101544.63;4957260;28;20054;-81
2021/11/19 10:49:20;;;;;;;5.05;2.92;;;;;;;11.91;78.54;101545.53;4957347;28;20050;-81
2021/11/19 10:52:29;;;;;;;4.50;2.83;;;;;;;11.92;78.00;101528.75;4954797;28;20054;-80
2021/11/19 10:55:22;;;;;;;4.63;3.15;;;;;;;11.90;77.71;101533.19;4955521;28;20071;-80
2021/11/19 10:58:19;;;;;;;5.20;3.30;;;;;;;11.89;78.32;101534.03;4956120;28;20054;-81
2021/11/19 11:00:47;;;;;;;4.65;3.20;;;;;;;11.93;77.96;101528.78;4956324;28;20055;-81
2021/11/19 11:03:17;;;;;;;5.13;3.50;;;;;;;11.99;77.82;101535.84;4960409;28;20086;-80
2021/11/19 11:05:54;;;;;;;4.68;2.90;;;;;;;12.00;77.40;101538.53;4958185;28;20391;-80
2021/11/19 11:08:19;;;;;;;5.05;3.40;;;;;;;12.07;77.70;101535.00;4961829;28;20094;-82
2021/11/19 11:10:52;;;;;;;6.63;3.35;;;;;;;12.17;77.12;101532.41;4967208;28;20069;-80
2021/11/19 11:13:30;;;;;;;6.47;3.33;;;;;;;12.19;76.43;101528.00;4941973;29;20135;-81
2021/11/19 11:16:19;;;;;;;4.47;2.97;;;;;;;12.18;77.01;101527.13;4958655;29;20043;-82
2021/11/19 11:18:44;;;;;;;5.20;2.70;;;;;;;12.15;76.71;101521.78;4959424;28;20095;-81
2021/11/19 11:21:30;;;;;;;4.63;2.55;;;;;;;12.14;76.63;101520.03;4957765;29;20047;-81
2021/11/19 11:24:14;;;;;;;5.60;2.97;;;;;;;12.23;76.84;101522.69;4958231;28;20094;-80
2021/11/19 11:26:50;;;;;;;6.28;3.40;;;;;;;12.32;76.12;101531.56;4961027;28;20043;-79
2021/11/19 11:29:16;;;;;;;5.80;3.60;;;;;;;12.31;76.32;101527.13;4958471;28;20047;-80
2021/11/19 11:32:13;;;;;;;4.78;3.17;;;;;;;12.36;76.37;101517.44;4960881;28;20051;-80
2021/11/19 11:34:45;;;;;;;4.75;3.28;;;;;;;12.37;76.83;101521.88;4950636;29;20043;-80
2021/11/19 11:37:15;;;;;;;4.65;3.35;;;;;;;12.41;76.32;101526.28;4934677;29;20107;-78
2021/11/19 11:39:43;;;;;;;5.13;2.80;;;;;;;12.44;76.06;101527.19;4949702;28;20046;-81
2021/11/19 11:42:24;;;;;;;5.45;2.83;;;;;;;12.41;76.00;101523.63;4958983;28;20118;-81
2021/11/19 11:44:53;;;;;;;4.28;2.58;;;;;;;12.26;76.71;101520.09;4940617;29;20043;-81
2021/11/19 11:47:38;;;;;;;4.45;2.90;;;;;;;12.27;76.23;101528.91;4960788;28;20057;-81